Nearby METAR Reports

 

LGBL - Nea Anchialos, Greece
Distance from station: ΝΔ 21km
Ενημερώθηκε: 24/10/2014 10:20
Mostly Cloudy
Mostly Cloudy
 Ανεμος από ΑΝΑ
Ανεμος: ΑΝΑ 22 km/h
Θερμοκρασία: 14°C
Σημείο Δρόσου: 9°C
Υγρασία: 72%
Βαρόμετρο: 1008 hPa
Clouds: Mostly Cloudy
Visibility: 10 km
Cloud details: Mostly Cloudy 1067 m
Mostly Cloudy 2438 m
2014/10/24 07:20 LGBL 240720Z 11012KT 9999 BKN035 BKN080 14/09 Q1008
LGSK - Skiathos Island, Greece
Distance from station: ΑΝΑ 51km
Ενημερώθηκε: 23/10/2014 08:50
NOT Current
Mostly Cloudy
Mostly Cloudy
 Ανεμος από Ν
Ανεμος: Ν 9 km/h
Θερμοκρασία: 22°C
Σημείο Δρόσου: 18°C
Υγρασία: 78%
Βαρόμετρο: 997 hPa
Clouds: Mostly Cloudy
Visibility: 10 km
Cloud details: Few Clouds 610 m
Partly Cloudy 2438 m
Mostly Cloudy 5486 m
2014/10/23 05:50 LGSK 230550Z 19005KT 9999 FEW020 SCT080 BKN180 22/18 Q0997
 
LGTS - Thessaloniki/Mik, Greece
Distance from station: 0 128km
Ενημερώθηκε: 24/10/2014 10:20
Ασθενής βροχή, Συννεφιά
Ασθενής βροχή, Συννεφιά
 Ανεμος από Δ
Ανεμος: Δ 15 km/h
Θερμοκρασία: 11°C
Σημείο Δρόσου: 8°C
Υγρασία: 82%
Βαρόμετρο: 1010 hPa
Περίληψη: Light Rain
Clouds: Συννεφιά
Visibility: 9 km
Cloud details: Few Clouds 610 m
Mostly Cloudy 914 m
Συννεφιά 2743 m
2014/10/24 07:20 LGTS 240720Z 26008KT 9000 -RA FEW020 BKN030 OVC090 11/08 Q1010 NOSIG
LGSY - Skiros, Greece
Distance from station: ΑΝΑ 139km
Ενημερώθηκε: 24/10/2014 09:50
Mostly Cloudy
Mostly Cloudy
 Ανεμος από ΑΝΑ
Ανεμος: ΑΝΑ 20 km/h
Θερμοκρασία: 17°C
Σημείο Δρόσου: 9°C
Υγρασία: 59%
Βαρόμετρο: 1007 hPa
Clouds: Mostly Cloudy
Visibility: 10 km
Cloud details: Partly Cloudy 762 m
Mostly Cloudy 2438 m
2014/10/24 06:50 LGSY 240650Z 11011KT 9999 SCT025 BKN080 17/09 Q1007 BLU
 
LGKZ - Kozani (civ/Army, Greece
Distance from station: ΒΔ 140km
Ενημερώθηκε: 24/10/2014 09:50
Ασθενής βροχή, Συννεφιά
Ασθενής βροχή, Συννεφιά
 Ανεμος από Β
Ανεμος: Β 7 km/h
Θερμοκρασία: 5°C
Ψυχρότητα Ανέμου: 3°C
Σημείο Δρόσου: 4°C
Υγρασία: 93%
Βαρόμετρο: 1009 hPa
Περίληψη: Light Rain
Clouds: Συννεφιά
Visibility: 10 km
Cloud details: Partly Cloudy 549 m
Mostly Cloudy 914 m
Συννεφιά 2134 m
2014/10/24 06:50 LGKZ 240650Z 36004KT 9999 -RA SCT018 BKN030 OVC070 05/04 Q1009
LGEL - Elefsis (hel-Afb, Greece
Distance from station: ΝΝΑ 153km
Ενημερώθηκε: 24/10/2014 10:20
Mostly Cloudy
Mostly Cloudy
 Ανεμος από Α
Ανεμος: Α 13 km/h
Θερμοκρασία: 16°C
Σημείο Δρόσου: 11°C
Υγρασία: 72%
Βαρόμετρο: 1007 hPa
Clouds: Mostly Cloudy
Visibility: 10 km
Cloud details: Few Clouds 549 m
Mostly Cloudy 762 m
Mostly Cloudy 2134 m
2014/10/24 07:20 LGEL 240720Z 10007KT 9999 FEW018TCU BKN025 BKN070 16/11 Q1007
 
LGAV - Athens/Elef-Ven, Greece
Distance from station: ΝΝΑ 181km
Ενημερώθηκε: 24/10/2014 10:20
Mostly Cloudy
Mostly Cloudy
 Ανεμος από varies
Ανεμος: varies 4 km/h
Θερμοκρασία: 14°C
Σημείο Δρόσου: 11°C
Υγρασία: 82%
Βαρόμετρο: 1009 hPa
Clouds: Mostly Cloudy
Visibility: 10 km
Cloud details: Few Clouds 762 m
Partly Cloudy 914 m
Mostly Cloudy 2134 m
2014/10/24 07:20 LGAV 240720Z VRB02KT 9999 FEW025TCU SCT030 BKN070 14/11 Q1009 NOSIG
LGIO - Ioannina, Greece
Distance from station: ΔΒΔ 187km
Ενημερώθηκε: 24/10/2014 10:20
Ασθενής βροχή, Συννεφιά
Ασθενής βροχή, Συννεφιά
 Ανεμος από Δ
Ανεμος: Δ 9 km/h
Θερμοκρασία: 7°C
Ψυχρότητα Ανέμου: 6°C
Σημείο Δρόσου: 7°C
Υγρασία: 100%
Βαρόμετρο: 1005 hPa
Περίληψη: Light Rain
Clouds: Συννεφιά
Visibility: 7 km
Cloud details: Few Clouds 183 m
Mostly Cloudy 762 m
Συννεφιά 2134 m
2014/10/24 07:20 LGIO 240720Z 26005KT 7000 -RA FEW006 BKN025 OVC070 07/07 Q1005
 
LGRX - Araxos (civ/Afb), Greece
Distance from station: ΝΔ 188km
Ενημερώθηκε: 24/10/2014 10:20
Ασθενής βροχή, Σχεδόν νεφελώδης
Ασθενής βροχή, Σχεδόν νεφελώδης
 Ανεμος από Α
Ανεμος: Α 13 km/h
Θερμοκρασία: 13°C
Σημείο Δρόσου: 12°C
Υγρασία: 94%
Βαρόμετρο: 1004 hPa
Περίληψη: Light Rain
Clouds: Mostly Cloudy
Visibility: 10 km
Cloud details: Few Clouds 549 m
Partly Cloudy 762 m
Mostly Cloudy 2438 m
2014/10/24 07:20 LGRX 240720Z 08007KT 9999 -RA FEW018TCU SCT025 BKN080 13/12 Q1004
LGLM - Limnos Island Ar, Greece
Distance from station: ΑΒΑ 205km
Ενημερώθηκε: 24/10/2014 10:20
Mostly Cloudy
Mostly Cloudy
 Ανεμος από calm
Ανεμος: Απνοια
Θερμοκρασία: 15°C
Σημείο Δρόσου: 13°C
Υγρασία: 88%
Βαρόμετρο: 1010 hPa
Clouds: Mostly Cloudy
Visibility: 10 km
Cloud details: Partly Cloudy 610 m
Mostly Cloudy 2438 m
Mostly Cloudy 5486 m
2014/10/24 07:20 LGLM 240720Z 00000KT 9999 SCT020 BKN080 BKN180 15/13 Q1010
 
LGPZ - Preveza/Aktion, Greece
Distance from station: ΔΝΔ 206km
Ενημερώθηκε: 24/10/2014 10:20
Βροχή, Συννεφιά
Βροχή, Συννεφιά
 Ανεμος από ΒΒΔ
Ανεμος: ΒΒΔ 9 km/h
Θερμοκρασία: 12°C
Σημείο Δρόσου: 11°C
Υγρασία: 94%
Βαρόμετρο: 1004 hPa
Περίληψη: Βροχή
Clouds: Συννεφιά
Visibility: 4 km
Cloud details: Partly Cloudy 549 m
Mostly Cloudy 762 m
Συννεφιά 2438 m
2014/10/24 07:20 LGPZ 240720Z 33005KT 4000 RA SCT018TCU BKN025 OVC080 12/11 Q1004
LGAD - Andravida (civ/A, Greece
Distance from station: ΝΔ 217km
Ενημερώθηκε: 24/10/2014 10:20
Συννεφιά
Συννεφιά
 Ανεμος από ΑΝΑ
Ανεμος: ΑΝΑ 11 km/h
Θερμοκρασία: 13°C
Σημείο Δρόσου: 11°C
Υγρασία: 88%
Βαρόμετρο: 1004 hPa
Clouds: Συννεφιά
Visibility: 10 km
Cloud details: Few Clouds 549 m
Partly Cloudy 762 m
Συννεφιά 2438 m
2014/10/24 07:20 LGAD 240720Z 12006KT 9999 FEW018TCU SCT025 OVC080 13/11 Q1004
 
LGKV - Kavala/Chrisoupo, Greece
Distance from station: ΒΑ 223km
Ενημερώθηκε: 24/10/2014 10:20
Mostly Cloudy
Mostly Cloudy
 Ανεμος από ΒΑ
Ανεμος: ΒΑ 9 km/h
Θερμοκρασία: 11°C
Σημείο Δρόσου: 8°C
Υγρασία: 82%
Βαρόμετρο: 1011 hPa
Clouds: Mostly Cloudy
Visibility: 10 km
Cloud details: Few Clouds 610 m
Mostly Cloudy 2438 m
Mostly Cloudy 5486 m
2014/10/24 07:20 LGKV 240720Z 05005KT 9999 FEW020 BKN080 BKN180 11/08 Q1011
LGKF - Kefallinia, Greece
Distance from station: ΔΝΔ 254km
Ενημερώθηκε: 24/10/2014 09:50
Ασθενής βροχή, Συννεφιά
Ασθενής βροχή, Συννεφιά
 Ανεμος από Α
Ανεμος: Α 13 km/h
Θερμοκρασία: 14°C
Σημείο Δρόσου: 13°C
Υγρασία: 94%
Βαρόμετρο: 1003 hPa
Περίληψη: Light Rain
Clouds: Συννεφιά
Visibility: 10 km
Cloud details: Partly Cloudy 427 m
Partly Cloudy 610 m
Συννεφιά 2134 m
2014/10/24 06:50 LGKF 240650Z 10007KT 9999 -RA SCT014TCU SCT020 OVC070 14/13 Q1003
 
LGZA - Zakinthos Airpor, Greece
Distance from station: ΝΔ 255km
Ενημερώθηκε: 24/10/2014 10:20
Light drizzle, Σχεδόν νεφελώδης
Light drizzle, Σχεδόν νεφελώδης
 Ανεμος από Α
Ανεμος: Α 6 km/h
Θερμοκρασία: 16°C
Σημείο Δρόσου: 15°C
Υγρασία: 94%
Βαρόμετρο: 1003 hPa
Περίληψη: Light Drizzle
Clouds: Mostly Cloudy
Visibility: 10 km
Cloud details: Partly Cloudy 366 m
Partly Cloudy 549 m
Mostly Cloudy 2438 m
2014/10/24 07:20 LGZA 240720Z 09003KT 9999 -DZ SCT012 SCT018TCU BKN080 16/15 Q1003
LGKR - Ioannis Kapodist, Greece
Distance from station: Δ 262km
Ενημερώθηκε: 24/10/2014 10:20
Mostly Cloudy
Mostly Cloudy
 Ανεμος από Α
Ανεμος: Α 24 km/h, Ριπή: 48 km/h
Θερμοκρασία: 14°C
Σημείο Δρόσου: 8°C
Υγρασία: 67%
Βαρόμετρο: 1002 hPa
Clouds: Mostly Cloudy
Visibility: 10 km
Cloud details: Few Clouds 457 m
Few Clouds 610 m
Mostly Cloudy 1067 m
Mostly Cloudy 2438 m
2014/10/24 07:20 LGKR 240720Z 10013G26KT 9999 FEW015 FEW020TCU BKN035 BKN080 14/08 Q1002 NOSIG
 
LGKL - Kalamata (hel-Af, Greece
Distance from station: ΝΝΔ 268km
Ενημερώθηκε: 24/10/2014 10:20
Mostly Cloudy
Mostly Cloudy
 Ανεμος από Ν
Ανεμος: Ν 22 km/h
Θερμοκρασία: 19°C
Σημείο Δρόσου: 13°C
Υγρασία: 68%
Βαρόμετρο: 1004 hPa
Clouds: Mostly Cloudy
Visibility: 10 km
Cloud details: Partly Cloudy 549 m
Mostly Cloudy 914 m
Mostly Cloudy 2438 m
2014/10/24 07:20 LGKL 240720Z 18012KT 9999 SCT018TCU BKN030 BKN080 19/13 Q1004
LGSO - Syros, Greece
Distance from station: ΝΑ 278km
Ενημερώθηκε: 24/10/2014 09:50
Mostly Cloudy
Mostly Cloudy
 Ανεμος από ΝΑ
Ανεμος: ΝΑ 20 km/h
Θερμοκρασία: 19°C
Σημείο Δρόσου: 12°C
Υγρασία: 64%
Βαρόμετρο: 1009 hPa
Clouds: Mostly Cloudy
Visibility: 10 km
Cloud details: Partly Cloudy 549 m
Mostly Cloudy 2438 m
2014/10/24 06:50 LGSO 240650Z 14011KT 9999 SCT018 BKN080 19/12 Q1009
 
LGHI - Chios Airport, Greece
Distance from station: ΑΝΑ 298km
Ενημερώθηκε: 24/10/2014 09:50
Mostly Cloudy
Mostly Cloudy
 Ανεμος από calm
Ανεμος: Απνοια
Θερμοκρασία: 17°C
Σημείο Δρόσου: 12°C
Υγρασία: 73%
Βαρόμετρο: 1010 hPa
Clouds: Mostly Cloudy
Visibility: 10 km
Cloud details: Partly Cloudy 610 m
Mostly Cloudy 2438 m
2014/10/24 06:50 LGHI 240650Z 00000KT 9999 SCT020 BKN080 17/12 Q1010
LGMK - Mikonos Island, Greece
Distance from station: ΝΑ 300km
Ενημερώθηκε: 24/10/2014 09:50
Mostly Cloudy
Mostly Cloudy
 Ανεμος από ΝΑ
Ανεμος: ΝΑ 17 km/h
Θερμοκρασία: 19°C
Σημείο Δρόσου: 10°C
Υγρασία: 56%
Βαρόμετρο: 1010 hPa
Clouds: Mostly Cloudy
Visibility: 10 km
Cloud details: Partly Cloudy 1067 m
Mostly Cloudy 2438 m
2014/10/24 06:50 LGMK 240650Z 14009KT 9999 SCT035 BKN080 19/10 Q1010
 
LGAL - Alexandroupolis, Greece
Distance from station: ΒΑ 301km
Ενημερώθηκε: 24/10/2014 10:20
Mostly Cloudy
Mostly Cloudy
 Ανεμος από varies
Ανεμος: varies 0 km/h
Θερμοκρασία: 13°C
Σημείο Δρόσου: 10°C
Υγρασία: 82%
Βαρόμετρο: 1012 hPa
Clouds: Mostly Cloudy
Visibility: 10 km
Cloud details: Few Clouds 762 m
Partly Cloudy 2743 m
Mostly Cloudy 5486 m
2014/10/24 07:20 LGAL 240720Z /////KT 9999 FEW025 SCT090 BKN180 13/10 Q1012
LGMT - Mitilini, Greece
Distance from station: Α 316km
Ενημερώθηκε: 24/10/2014 09:50
Mostly Cloudy
Mostly Cloudy
 Ανεμος από Ν
Ανεμος: Ν 9 km/h
Θερμοκρασία: 18°C
Σημείο Δρόσου: 13°C
Υγρασία: 73%
Βαρόμετρο: 1012 hPa
Clouds: Mostly Cloudy
Visibility: 10 km
Cloud details: Few Clouds 762 m
Partly Cloudy 2438 m
Mostly Cloudy 4877 m
2014/10/24 06:50 LGMT 240650Z 17005KT 9999 FEW025 SCT080 BKN160 18/13 Q1012
 
LGPA - Paros, Greece
Distance from station: ΝΑ 321km
Ενημερώθηκε: 24/10/2014 09:50
Partly Cloudy
Partly Cloudy
 Ανεμος από ΝΑ
Ανεμος: ΝΑ 24 km/h
Θερμοκρασία: 21°C
Σημείο Δρόσου: 13°C
Υγρασία: 60%
Βαρόμετρο: 1010 hPa
Clouds: Partly Cloudy
Visibility: 10 km
Cloud details: Few Clouds 762 m
Partly Cloudy 2438 m
2014/10/24 06:50 LGPA 240650Z 13013KT 9999 FEW025 SCT080 21/13 Q1010
LGNX - Naxos Airport, Greece
Distance from station: ΝΑ 330km
Ενημερώθηκε: 23/10/2014 14:50
NOT Current
Partly Cloudy
Partly Cloudy
 Ανεμος από ΝΝΔ
Ανεμος: ΝΝΔ 30 km/h, Ριπή: 50 km/h
Θερμοκρασία: 23°C
Σημείο Δρόσου: 18°C
Υγρασία: 74%
Βαρόμετρο: 1004 hPa
Clouds: Partly Cloudy
Visibility: 10 km
Cloud details: Few Clouds 549 m
Partly Cloudy 762 m
2014/10/23 11:50 LGNX 231150Z 20016G27KT 9999 FEW018TCU SCT025 23/18 Q1004
 
LGKC - Kithira Arpt, Greece
Distance from station: Ν 343km
Ενημερώθηκε: 23/10/2014 16:50
NOT Current
Partly Cloudy
Partly Cloudy
 Ανεμος από varies
Ανεμος: varies 0 km/h
Θερμοκρασία: 19°C
Σημείο Δρόσου: 12°C
Υγρασία: 64%
Βαρόμετρο: 1007 hPa
Clouds: Partly Cloudy
Visibility: 10 km
Cloud details: Partly Cloudy 427 m
Partly Cloudy 5486 m
2014/10/23 13:50 LGKC 231350Z /////KT 9999 SCT014 SCT180 19/12 Q1007
LBSF - Sofia (observato, Bulgaria
Distance from station: Β 367km
Ενημερώθηκε: 24/10/2014 10:30
Partly Cloudy
Partly Cloudy
 Ανεμος από Α
Ανεμος: Α 7 km/h
Θερμοκρασία: 8°C
Ψυχρότητα Ανέμου: 7°C
Σημείο Δρόσου: 5°C
Υγρασία: 82%
Βαρόμετρο: 1013 hPa
Clouds: Partly Cloudy
Visibility: 10 km
Cloud details: Few Clouds 305 m
Partly Cloudy 518 m
2014/10/24 07:30 LBSF 240730Z 10002MPS 9999 FEW010 SCT017 08/05 Q1013 NOSIG
 
LGSM - Samos Airport, Greece
Distance from station: ΑΝΑ 392km
Ενημερώθηκε: 24/10/2014 10:20
Partly Cloudy
Partly Cloudy
 Ανεμος από ΝΑ
Ανεμος: ΝΑ 20 km/h
Θερμοκρασία: 20°C
Σημείο Δρόσου: 14°C
Υγρασία: 69%
Βαρόμετρο: 1012 hPa
Clouds: Partly Cloudy
Visibility: 10 km
Cloud details: Few Clouds 610 m
Partly Cloudy 2438 m
2014/10/24 07:20 LGSM 240720Z 13011KT 9999 FEW020 SCT080 20/14 Q1012
LGSR - Santorini Island, Greece
Distance from station: ΝΑ 397km
Ενημερώθηκε: 24/10/2014 10:20
Partly Cloudy
Partly Cloudy
 Ανεμος από ΝΝΑ
Ανεμος: ΝΝΑ 24 km/h
Θερμοκρασία: 22°C
Σημείο Δρόσου: 14°C
Υγρασία: 61%
Βαρόμετρο: 1010 hPa
Clouds: Partly Cloudy
Visibility: 10 km
Cloud details: Partly Cloudy 762 m
Partly Cloudy 5486 m
2014/10/24 07:20 LGSR 240720Z 15013KT 9999 SCT025 SCT180 22/14 Q1010
 
LGSA - Souda/Khania (af, Greece
Distance from station: ΝΝΑ 439km
Ενημερώθηκε: 24/10/2014 10:20
Mostly Cloudy
Mostly Cloudy
 Ανεμος από Ν
Ανεμος: Ν 9 km/h
Θερμοκρασία: 19°C
Σημείο Δρόσου: 10°C
Υγρασία: 56%
Βαρόμετρο: 1009 hPa
Clouds: Mostly Cloudy
Visibility: 10 km
Cloud details: Few Clouds 762 m
Mostly Cloudy 2438 m
2014/10/24 07:20 LGSA 240720Z 19005KT 9999 FEW025 BKN080 19/10 Q1009
LGKO - Kos Airport, Greece
Distance from station: ΝΑ 460km
Ενημερώθηκε: 24/10/2014 10:20
Αίθριος
Αίθριος
 Ανεμος από ΑΝΑ
Ανεμος: ΑΝΑ 15 km/h
Θερμοκρασία: 20°C
Σημείο Δρόσου: 11°C
Υγρασία: 56%
Βαρόμετρο: 1012 hPa
Περίληψη: Αίθριος
Visibility: greater than 10 km
2014/10/24 07:20 LGKO 240720Z 12008KT CAVOK 20/11 Q1012
 
LGIR - Iraklion (civ/Af, Greece
Distance from station: ΝΝΑ 491km
Ενημερώθηκε: 24/10/2014 10:20
Mostly Cloudy
Mostly Cloudy
 Ανεμος από Ν
Ανεμος: Ν 19 km/h
Θερμοκρασία: 20°C
Σημείο Δρόσου: 14°C
Υγρασία: 69%
Βαρόμετρο: 1010 hPa
Clouds: Mostly Cloudy
Visibility: 10 km
Cloud details: Few Clouds 762 m
Mostly Cloudy 2438 m
2014/10/24 07:20 LGIR 240720Z 19010KT 9999 FEW025 BKN080 20/14 Q1010 NOSIG